sensor_id;sensor_type;location;lat;lon;timestamp;temperature;humidity
21001;DHT22;10658;50.920;12.238;2023-11-19T00:01:29;5.00;99.90
21001;DHT22;10658;50.920;12.238;2023-11-19T00:05:30;5.00;99.90
21001;DHT22;10658;50.920;12.238;2023-11-19T00:09:31;4.90;99.90
21001;DHT22;10658;50.920;12.238;2023-11-19T00:13:32;4.90;99.90
21001;DHT22;10658;50.920;12.238;2023-11-19T00:17:33;4.90;99.90
21001;DHT22;10658;50.920;12.238;2023-11-19T00:21:33;4.90;99.90
21001;DHT22;10658;50.920;12.238;2023-11-19T00:25:34;4.90;99.90
21001;DHT22;10658;50.920;12.238;2023-11-19T00:29:35;4.90;99.90
21001;DHT22;10658;50.920;12.238;2023-11-19T00:33:36;4.80;99.90
21001;DHT22;10658;50.920;12.238;2023-11-19T00:37:38;4.80;99.90
21001;DHT22;10658;50.920;12.238;2023-11-19T00:41:40;4.80;99.90
21001;DHT22;10658;50.920;12.238;2023-11-19T00:45:41;4.70;99.90
21001;DHT22;10658;50.920;12.238;2023-11-19T00:49:43;4.70;99.90
21001;DHT22;10658;50.920;12.238;2023-11-19T00:53:44;4.70;99.90
21001;DHT22;10658;50.920;12.238;2023-11-19T00:57:45;4.70;99.90
21001;DHT22;10658;50.920;12.238;2023-11-19T01:01:46;4.70;99.90
21001;DHT22;10658;50.920;12.238;2023-11-19T01:05:51;4.70;99.90
21001;DHT22;10658;50.920;12.238;2023-11-19T01:09:53;4.80;99.90
21001;DHT22;10658;50.920;12.238;2023-11-19T01:13:54;4.80;99.90
21001;DHT22;10658;50.920;12.238;2023-11-19T01:17:55;4.80;99.90
21001;DHT22;10658;50.920;12.238;2023-11-19T01:21:56;4.80;99.90
21001;DHT22;10658;50.920;12.238;2023-11-19T01:25:57;4.90;99.90
21001;DHT22;10658;50.920;12.238;2023-11-19T01:29:57;4.90;99.90
21001;DHT22;10658;50.920;12.238;2023-11-19T01:33:59;4.90;99.90
21001;DHT22;10658;50.920;12.238;2023-11-19T01:38:00;5.00;99.90
21001;DHT22;10658;50.920;12.238;2023-11-19T01:42:00;5.00;99.90
21001;DHT22;10658;50.920;12.238;2023-11-19T01:46:02;5.00;99.90
21001;DHT22;10658;50.920;12.238;2023-11-19T01:50:06;4.90;99.90
21001;DHT22;10658;50.920;12.238;2023-11-19T01:54:08;5.10;99.90
21001;DHT22;10658;50.920;12.238;2023-11-19T01:58:09;5.10;99.90
21001;DHT22;10658;50.920;12.238;2023-11-19T02:02:10;5.10;99.90
21001;DHT22;10658;50.920;12.238;2023-11-19T02:06:13;5.10;99.90
21001;DHT22;10658;50.920;12.238;2023-11-19T02:10:14;5.10;99.90
21001;DHT22;10658;50.920;12.238;2023-11-19T02:14:17;5.20;99.90
21001;DHT22;10658;50.920;12.238;2023-11-19T02:18:19;5.20;99.90
21001;DHT22;10658;50.920;12.238;2023-11-19T02:22:21;5.20;99.90
21001;DHT22;10658;50.920;12.238;2023-11-19T02:26:39;5.30;99.90
21001;DHT22;10658;50.920;12.238;2023-11-19T02:30:40;5.30;99.90
21001;DHT22;10658;50.920;12.238;2023-11-19T02:34:41;5.30;99.90
21001;DHT22;10658;50.920;12.238;2023-11-19T02:38:42;5.40;99.90
21001;DHT22;10658;50.920;12.238;2023-11-19T02:42:43;5.40;99.90
21001;DHT22;10658;50.920;12.238;2023-11-19T02:46:44;5.50;99.90
21001;DHT22;10658;50.920;12.238;2023-11-19T02:50:46;5.50;99.90
21001;DHT22;10658;50.920;12.238;2023-11-19T02:54:48;5.50;99.90
21001;DHT22;10658;50.920;12.238;2023-11-19T02:58:49;5.50;99.90
21001;DHT22;10658;50.920;12.238;2023-11-19T03:02:51;5.60;99.90
21001;DHT22;10658;50.920;12.238;2023-11-19T03:06:59;5.60;99.90
21001;DHT22;10658;50.920;12.238;2023-11-19T03:11:02;5.70;99.90
21001;DHT22;10658;50.920;12.238;2023-11-19T03:15:03;5.70;99.90
21001;DHT22;10658;50.920;12.238;2023-11-19T03:19:04;5.70;99.90
21001;DHT22;10658;50.920;12.238;2023-11-19T03:23:04;5.80;99.90
21001;DHT22;10658;50.920;12.238;2023-11-19T03:27:06;5.90;99.90
21001;DHT22;10658;50.920;12.238;2023-11-19T03:31:07;5.90;99.90
21001;DHT22;10658;50.920;12.238;2023-11-19T03:35:09;5.90;99.90
21001;DHT22;10658;50.920;12.238;2023-11-19T03:39:12;6.00;99.90
21001;DHT22;10658;50.920;12.238;2023-11-19T03:43:13;6.00;99.90
21001;DHT22;10658;50.920;12.238;2023-11-19T03:47:14;6.10;99.90
21001;DHT22;10658;50.920;12.238;2023-11-19T03:51:15;6.20;99.90
21001;DHT22;10658;50.920;12.238;2023-11-19T03:55:16;6.30;99.90
21001;DHT22;10658;50.920;12.238;2023-11-19T03:59:17;6.30;99.90
21001;DHT22;10658;50.920;12.238;2023-11-19T04:03:21;6.30;99.90
21001;DHT22;10658;50.920;12.238;2023-11-19T04:07:21;6.40;99.90
21001;DHT22;10658;50.920;12.238;2023-11-19T04:11:22;6.40;99.90
21001;DHT22;10658;50.920;12.238;2023-11-19T04:15:23;6.50;99.90
21001;DHT22;10658;50.920;12.238;2023-11-19T04:19:24;6.50;99.90
21001;DHT22;10658;50.920;12.238;2023-11-19T04:23:25;6.60;99.90
21001;DHT22;10658;50.920;12.238;2023-11-19T04:27:26;6.60;99.90
21001;DHT22;10658;50.920;12.238;2023-11-19T04:31:30;6.70;99.90
21001;DHT22;10658;50.920;12.238;2023-11-19T04:35:32;6.70;99.90
21001;DHT22;10658;50.920;12.238;2023-11-19T04:39:32;6.70;99.90
21001;DHT22;10658;50.920;12.238;2023-11-19T04:43:33;6.70;99.90
21001;DHT22;10658;50.920;12.238;2023-11-19T04:47:34;6.80;99.90
21001;DHT22;10658;50.920;12.238;2023-11-19T04:51:39;6.80;99.90
21001;DHT22;10658;50.920;12.238;2023-11-19T04:55:40;6.80;99.90
21001;DHT22;10658;50.920;12.238;2023-11-19T04:59:41;6.80;99.90
21001;DHT22;10658;50.920;12.238;2023-11-19T05:03:42;6.90;99.90
21001;DHT22;10658;50.920;12.238;2023-11-19T05:07:43;6.90;99.90
21001;DHT22;10658;50.920;12.238;2023-11-19T05:11:43;7.00;99.90
21001;DHT22;10658;50.920;12.238;2023-11-19T05:15:44;7.00;99.90
21001;DHT22;10658;50.920;12.238;2023-11-19T05:19:45;7.10;99.90
21001;DHT22;10658;50.920;12.238;2023-11-19T05:23:46;7.10;99.90
21001;DHT22;10658;50.920;12.238;2023-11-19T05:27:47;7.20;99.90
21001;DHT22;10658;50.920;12.238;2023-11-19T05:31:48;7.20;99.90
21001;DHT22;10658;50.920;12.238;2023-11-19T05:35:49;7.20;99.90
21001;DHT22;10658;50.920;12.238;2023-11-19T05:39:50;7.30;99.90
21001;DHT22;10658;50.920;12.238;2023-11-19T05:43:51;7.30;99.90
21001;DHT22;10658;50.920;12.238;2023-11-19T05:47:52;7.30;99.90
21001;DHT22;10658;50.920;12.238;2023-11-19T05:51:53;7.30;99.90
21001;DHT22;10658;50.920;12.238;2023-11-19T05:55:56;7.30;99.90
21001;DHT22;10658;50.920;12.238;2023-11-19T05:59:57;7.40;99.90
21001;DHT22;10658;50.920;12.238;2023-11-19T06:03:59;7.40;99.90
21001;DHT22;10658;50.920;12.238;2023-11-19T06:08:01;7.50;99.90
21001;DHT22;10658;50.920;12.238;2023-11-19T06:12:02;7.50;99.90
21001;DHT22;10658;50.920;12.238;2023-11-19T06:16:04;7.50;99.90
21001;DHT22;10658;50.920;12.238;2023-11-19T06:20:05;7.60;99.90
21001;DHT22;10658;50.920;12.238;2023-11-19T06:24:08;7.50;99.90
21001;DHT22;10658;50.920;12.238;2023-11-19T06:28:09;7.60;99.90
21001;DHT22;10658;50.920;12.238;2023-11-19T06:32:10;7.60;99.90
21001;DHT22;10658;50.920;12.238;2023-11-19T06:36:14;7.70;99.90
21001;DHT22;10658;50.920;12.238;2023-11-19T06:40:16;7.70;99.90
21001;DHT22;10658;50.920;12.238;2023-11-19T06:44:17;7.70;99.90
21001;DHT22;10658;50.920;12.238;2023-11-19T06:48:18;7.70;99.90
21001;DHT22;10658;50.920;12.238;2023-11-19T06:52:19;7.70;99.90
21001;DHT22;10658;50.920;12.238;2023-11-19T06:56:24;7.70;99.90
21001;DHT22;10658;50.920;12.238;2023-11-19T07:00:24;7.80;99.90
21001;DHT22;10658;50.920;12.238;2023-11-19T07:04:25;7.80;99.90
21001;DHT22;10658;50.920;12.238;2023-11-19T07:08:26;7.70;99.90
21001;DHT22;10658;50.920;12.238;2023-11-19T07:12:27;7.70;99.90
21001;DHT22;10658;50.920;12.238;2023-11-19T07:16:28;7.80;99.90
21001;DHT22;10658;50.920;12.238;2023-11-19T07:20:30;7.80;99.90
21001;DHT22;10658;50.920;12.238;2023-11-19T07:24:31;7.80;99.90
21001;DHT22;10658;50.920;12.238;2023-11-19T07:28:32;7.90;99.90
21001;DHT22;10658;50.920;12.238;2023-11-19T07:32:33;7.90;99.90
21001;DHT22;10658;50.920;12.238;2023-11-19T07:36:34;7.90;99.90
21001;DHT22;10658;50.920;12.238;2023-11-19T07:40:36;7.90;99.90
21001;DHT22;10658;50.920;12.238;2023-11-19T07:44:37;7.90;99.90
21001;DHT22;10658;50.920;12.238;2023-11-19T07:48:38;8.00;99.90
21001;DHT22;10658;50.920;12.238;2023-11-19T07:52:39;8.00;99.90
21001;DHT22;10658;50.920;12.238;2023-11-19T07:56:39;8.00;99.90
21001;DHT22;10658;50.920;12.238;2023-11-19T08:00:41;8.10;99.90
21001;DHT22;10658;50.920;12.238;2023-11-19T08:04:42;8.30;99.90
21001;DHT22;10658;50.920;12.238;2023-11-19T08:08:45;8.40;99.90
21001;DHT22;10658;50.920;12.238;2023-11-19T08:12:46;8.60;99.90
21001;DHT22;10658;50.920;12.238;2023-11-19T08:16:47;8.80;99.90
21001;DHT22;10658;50.920;12.238;2023-11-19T08:20:48;9.00;99.90
21001;DHT22;10658;50.920;12.238;2023-11-19T08:24:53;9.20;99.90
21001;DHT22;10658;50.920;12.238;2023-11-19T08:28:53;9.40;99.90
21001;DHT22;10658;50.920;12.238;2023-11-19T08:32:54;9.60;99.90
21001;DHT22;10658;50.920;12.238;2023-11-19T08:36:55;9.70;99.90
21001;DHT22;10658;50.920;12.238;2023-11-19T08:40:56;9.70;99.90
21001;DHT22;10658;50.920;12.238;2023-11-19T08:45:00;9.70;99.90
21001;DHT22;10658;50.920;12.238;2023-11-19T08:49:01;9.70;99.90
21001;DHT22;10658;50.920;12.238;2023-11-19T08:53:03;9.60;99.90
21001;DHT22;10658;50.920;12.238;2023-11-19T08:57:07;9.80;99.90
21001;DHT22;10658;50.920;12.238;2023-11-19T09:01:09;10.00;99.90
21001;DHT22;10658;50.920;12.238;2023-11-19T09:05:10;10.20;99.90
21001;DHT22;10658;50.920;12.238;2023-11-19T09:09:13;10.40;99.90
21001;DHT22;10658;50.920;12.238;2023-11-19T09:13:14;10.50;99.90
21001;DHT22;10658;50.920;12.238;2023-11-19T09:17:16;10.50;99.90
21001;DHT22;10658;50.920;12.238;2023-11-19T09:21:18;10.50;99.90
21001;DHT22;10658;50.920;12.238;2023-11-19T09:25:20;10.50;99.90
21001;DHT22;10658;50.920;12.238;2023-11-19T09:29:22;10.60;99.90
21001;DHT22;10658;50.920;12.238;2023-11-19T09:33:23;10.60;99.90
21001;DHT22;10658;50.920;12.238;2023-11-19T09:37:24;10.70;99.90
21001;DHT22;10658;50.920;12.238;2023-11-19T09:41:25;10.60;99.90
21001;DHT22;10658;50.920;12.238;2023-11-19T09:45:27;10.70;99.90
21001;DHT22;10658;50.920;12.238;2023-11-19T09:49:29;10.80;99.90
21001;DHT22;10658;50.920;12.238;2023-11-19T09:53:31;11.00;99.90
21001;DHT22;10658;50.920;12.238;2023-11-19T09:57:32;11.30;99.90
21001;DHT22;10658;50.920;12.238;2023-11-19T10:01:36;11.70;99.90
21001;DHT22;10658;50.920;12.238;2023-11-19T10:05:37;12.00;99.90
21001;DHT22;10658;50.920;12.238;2023-11-19T10:09:39;12.20;99.90
21001;DHT22;10658;50.920;12.238;2023-11-19T10:13:40;12.10;99.90
21001;DHT22;10658;50.920;12.238;2023-11-19T10:17:43;12.00;99.90
21001;DHT22;10658;50.920;12.238;2023-11-19T10:21:45;12.20;99.90
21001;DHT22;10658;50.920;12.238;2023-11-19T10:25:47;12.30;99.90
21001;DHT22;10658;50.920;12.238;2023-11-19T10:29:48;12.40;99.90
21001;DHT22;10658;50.920;12.238;2023-11-19T10:33:49;12.50;99.90
21001;DHT22;10658;50.920;12.238;2023-11-19T10:37:50;12.60;99.90
21001;DHT22;10658;50.920;12.238;2023-11-19T10:41:51;12.60;99.90
21001;DHT22;10658;50.920;12.238;2023-11-19T10:45:52;12.60;99.90
21001;DHT22;10658;50.920;12.238;2023-11-19T10:49:53;12.60;99.90
21001;DHT22;10658;50.920;12.238;2023-11-19T10:54:04;12.60;99.90
21001;DHT22;10658;50.920;12.238;2023-11-19T10:58:09;12.60;99.90
21001;DHT22;10658;50.920;12.238;2023-11-19T11:02:12;12.60;99.90
21001;DHT22;10658;50.920;12.238;2023-11-19T11:06:18;12.70;99.90
21001;DHT22;10658;50.920;12.238;2023-11-19T11:10:19;12.80;99.90
21001;DHT22;10658;50.920;12.238;2023-11-19T11:14:24;12.80;99.90
21001;DHT22;10658;50.920;12.238;2023-11-19T11:18:26;12.80;99.90
21001;DHT22;10658;50.920;12.238;2023-11-19T11:22:28;12.70;99.90
21001;DHT22;10658;50.920;12.238;2023-11-19T11:31:15;12.40;99.90
21001;DHT22;10658;50.920;12.238;2023-11-19T11:39:34;12.20;99.90
21001;DHT22;10658;50.920;12.238;2023-11-19T11:55:58;12.60;99.90
21001;DHT22;10658;50.920;12.238;2023-11-19T12:00:02;12.70;99.90
21001;DHT22;10658;50.920;12.238;2023-11-19T12:04:06;12.80;99.90
21001;DHT22;10658;50.920;12.238;2023-11-19T12:08:07;12.60;99.90
21001;DHT22;10658;50.920;12.238;2023-11-19T12:12:23;12.60;99.90
21001;DHT22;10658;50.920;12.238;2023-11-19T12:16:26;12.50;99.90
21001;DHT22;10658;50.920;12.238;2023-11-19T12:20:33;12.50;99.90
21001;DHT22;10658;50.920;12.238;2023-11-19T12:24:37;12.50;99.90
21001;DHT22;10658;50.920;12.238;2023-11-19T12:28:38;12.70;99.90
21001;DHT22;10658;50.920;12.238;2023-11-19T12:32:43;12.70;99.90
21001;DHT22;10658;50.920;12.238;2023-11-19T12:41:50;12.70;99.90
21001;DHT22;10658;50.920;12.238;2023-11-19T12:45:51;12.70;99.90
21001;DHT22;10658;50.920;12.238;2023-11-19T12:49:56;12.70;99.90
21001;DHT22;10658;50.920;12.238;2023-11-19T12:53:57;12.60;99.90
21001;DHT22;10658;50.920;12.238;2023-11-19T12:57:58;12.60;99.90
21001;DHT22;10658;50.920;12.238;2023-11-19T13:02:00;12.60;99.90
21001;DHT22;10658;50.920;12.238;2023-11-19T13:06:05;12.60;99.90
21001;DHT22;10658;50.920;12.238;2023-11-19T13:10:06;12.70;99.90
21001;DHT22;10658;50.920;12.238;2023-11-19T13:14:07;12.60;99.90
21001;DHT22;10658;50.920;12.238;2023-11-19T13:18:12;12.70;99.90
21001;DHT22;10658;50.920;12.238;2023-11-19T13:22:14;12.70;99.90
21001;DHT22;10658;50.920;12.238;2023-11-19T13:26:15;12.60;99.90
21001;DHT22;10658;50.920;12.238;2023-11-19T13:30:17;12.60;99.90
21001;DHT22;10658;50.920;12.238;2023-11-19T13:34:18;12.60;99.90
21001;DHT22;10658;50.920;12.238;2023-11-19T13:38:18;12.50;99.90
21001;DHT22;10658;50.920;12.238;2023-11-19T13:42:20;12.40;99.90
21001;DHT22;10658;50.920;12.238;2023-11-19T13:46:20;12.40;99.90
21001;DHT22;10658;50.920;12.238;2023-11-19T13:50:21;12.40;99.90
21001;DHT22;10658;50.920;12.238;2023-11-19T13:54:23;12.40;99.90
21001;DHT22;10658;50.920;12.238;2023-11-19T13:58:24;12.30;99.90
21001;DHT22;10658;50.920;12.238;2023-11-19T14:02:24;12.40;99.90
21001;DHT22;10658;50.920;12.238;2023-11-19T14:06:25;12.30;99.90
21001;DHT22;10658;50.920;12.238;2023-11-19T14:10:26;12.30;99.90
21001;DHT22;10658;50.920;12.238;2023-11-19T14:14:27;12.30;99.90
21001;DHT22;10658;50.920;12.238;2023-11-19T14:18:28;12.20;99.90
21001;DHT22;10658;50.920;12.238;2023-11-19T14:22:28;12.20;99.90
21001;DHT22;10658;50.920;12.238;2023-11-19T14:26:31;12.20;99.90
21001;DHT22;10658;50.920;12.238;2023-11-19T14:30:31;12.10;99.90
21001;DHT22;10658;50.920;12.238;2023-11-19T14:34:32;12.10;99.90
21001;DHT22;10658;50.920;12.238;2023-11-19T14:38:33;12.00;99.90
21001;DHT22;10658;50.920;12.238;2023-11-19T14:42:34;11.90;99.90
21001;DHT22;10658;50.920;12.238;2023-11-19T14:46:35;11.80;99.90
21001;DHT22;10658;50.920;12.238;2023-11-19T14:50:36;11.70;99.90
21001;DHT22;10658;50.920;12.238;2023-11-19T14:54:37;11.70;99.90
21001;DHT22;10658;50.920;12.238;2023-11-19T14:58:39;11.60;99.90
21001;DHT22;10658;50.920;12.238;2023-11-19T15:02:41;11.60;99.90
21001;DHT22;10658;50.920;12.238;2023-11-19T15:06:42;11.60;99.90
21001;DHT22;10658;50.920;12.238;2023-11-19T15:10:43;11.40;99.90
21001;DHT22;10658;50.920;12.238;2023-11-19T15:14:45;11.30;99.90
21001;DHT22;10658;50.920;12.238;2023-11-19T15:18:46;11.30;99.90
21001;DHT22;10658;50.920;12.238;2023-11-19T15:22:47;11.30;99.90
21001;DHT22;10658;50.920;12.238;2023-11-19T15:26:48;11.30;99.90
21001;DHT22;10658;50.920;12.238;2023-11-19T15:30:49;11.30;99.90
21001;DHT22;10658;50.920;12.238;2023-11-19T15:34:50;11.20;99.90
21001;DHT22;10658;50.920;12.238;2023-11-19T15:38:51;11.20;99.90
21001;DHT22;10658;50.920;12.238;2023-11-19T15:42:51;11.10;99.90
21001;DHT22;10658;50.920;12.238;2023-11-19T15:46:54;11.00;99.90
21001;DHT22;10658;50.920;12.238;2023-11-19T15:50:55;10.80;99.90
21001;DHT22;10658;50.920;12.238;2023-11-19T15:54:56;10.70;99.90
21001;DHT22;10658;50.920;12.238;2023-11-19T15:58:57;10.70;99.90
21001;DHT22;10658;50.920;12.238;2023-11-19T16:02:58;10.80;99.90
21001;DHT22;10658;50.920;12.238;2023-11-19T16:06:58;10.80;99.90
21001;DHT22;10658;50.920;12.238;2023-11-19T16:10:59;10.80;99.90
21001;DHT22;10658;50.920;12.238;2023-11-19T16:15:00;10.80;99.90
21001;DHT22;10658;50.920;12.238;2023-11-19T16:19:01;10.80;99.90
21001;DHT22;10658;50.920;12.238;2023-11-19T16:23:01;10.70;99.90
21001;DHT22;10658;50.920;12.238;2023-11-19T16:27:05;10.60;99.90
21001;DHT22;10658;50.920;12.238;2023-11-19T16:31:06;10.60;99.90
21001;DHT22;10658;50.920;12.238;2023-11-19T16:35:08;10.70;99.90
21001;DHT22;10658;50.920;12.238;2023-11-19T16:39:12;10.70;99.90
21001;DHT22;10658;50.920;12.238;2023-11-19T16:43:14;10.80;99.90
21001;DHT22;10658;50.920;12.238;2023-11-19T16:47:15;10.80;99.90
21001;DHT22;10658;50.920;12.238;2023-11-19T16:51:16;10.70;99.90
21001;DHT22;10658;50.920;12.238;2023-11-19T16:55:17;10.80;99.90
21001;DHT22;10658;50.920;12.238;2023-11-19T16:59:18;10.80;99.90
21001;DHT22;10658;50.920;12.238;2023-11-19T17:03:18;10.70;99.90
21001;DHT22;10658;50.920;12.238;2023-11-19T17:07:19;10.70;99.90
21001;DHT22;10658;50.920;12.238;2023-11-19T17:11:20;10.80;99.90
21001;DHT22;10658;50.920;12.238;2023-11-19T17:15:21;10.80;99.90
21001;DHT22;10658;50.920;12.238;2023-11-19T17:19:22;10.70;99.90
21001;DHT22;10658;50.920;12.238;2023-11-19T17:23:23;10.70;99.90
21001;DHT22;10658;50.920;12.238;2023-11-19T17:27:24;10.70;99.90
21001;DHT22;10658;50.920;12.238;2023-11-19T17:31:32;10.60;99.90
21001;DHT22;10658;50.920;12.238;2023-11-19T17:35:33;10.60;99.90
21001;DHT22;10658;50.920;12.238;2023-11-19T17:39:34;10.50;99.90
21001;DHT22;10658;50.920;12.238;2023-11-19T17:43:35;10.60;99.90
21001;DHT22;10658;50.920;12.238;2023-11-19T17:47:36;10.50;99.90
21001;DHT22;10658;50.920;12.238;2023-11-19T17:51:37;10.40;99.90
21001;DHT22;10658;50.920;12.238;2023-11-19T17:55:38;10.40;99.90
21001;DHT22;10658;50.920;12.238;2023-11-19T17:59:39;10.40;99.90
21001;DHT22;10658;50.920;12.238;2023-11-19T18:03:40;10.40;99.90
21001;DHT22;10658;50.920;12.238;2023-11-19T18:07:41;10.30;99.90
21001;DHT22;10658;50.920;12.238;2023-11-19T18:11:42;10.30;99.90
21001;DHT22;10658;50.920;12.238;2023-11-19T18:15:43;10.20;99.90
21001;DHT22;10658;50.920;12.238;2023-11-19T18:19:44;10.30;99.90
21001;DHT22;10658;50.920;12.238;2023-11-19T18:23:45;10.20;99.90
21001;DHT22;10658;50.920;12.238;2023-11-19T18:27:47;10.30;99.90
21001;DHT22;10658;50.920;12.238;2023-11-19T18:31:48;10.40;99.90
21001;DHT22;10658;50.920;12.238;2023-11-19T18:35:49;10.40;99.90
21001;DHT22;10658;50.920;12.238;2023-11-19T18:39:50;10.50;99.90
21001;DHT22;10658;50.920;12.238;2023-11-19T18:43:50;10.60;99.90
21001;DHT22;10658;50.920;12.238;2023-11-19T18:47:51;10.60;99.90
21001;DHT22;10658;50.920;12.238;2023-11-19T18:51:52;10.60;99.90
21001;DHT22;10658;50.920;12.238;2023-11-19T18:55:53;10.70;99.90
21001;DHT22;10658;50.920;12.238;2023-11-19T18:59:54;10.80;99.90
21001;DHT22;10658;50.920;12.238;2023-11-19T19:03:55;10.90;99.90
21001;DHT22;10658;50.920;12.238;2023-11-19T19:07:56;10.90;99.90
21001;DHT22;10658;50.920;12.238;2023-11-19T19:11:58;10.90;99.90
21001;DHT22;10658;50.920;12.238;2023-11-19T19:15:59;10.90;99.90
21001;DHT22;10658;50.920;12.238;2023-11-19T19:20:00;10.90;99.90
21001;DHT22;10658;50.920;12.238;2023-11-19T19:24:01;10.80;99.90
21001;DHT22;10658;50.920;12.238;2023-11-19T19:28:05;10.80;99.90
21001;DHT22;10658;50.920;12.238;2023-11-19T19:32:10;10.80;99.90
21001;DHT22;10658;50.920;12.238;2023-11-19T19:36:10;10.70;99.90
21001;DHT22;10658;50.920;12.238;2023-11-19T19:40:11;10.70;99.90
21001;DHT22;10658;50.920;12.238;2023-11-19T19:44:13;10.70;99.90
21001;DHT22;10658;50.920;12.238;2023-11-19T19:48:16;10.60;99.90
21001;DHT22;10658;50.920;12.238;2023-11-19T19:52:16;10.50;99.90
21001;DHT22;10658;50.920;12.238;2023-11-19T19:56:17;10.50;99.90
21001;DHT22;10658;50.920;12.238;2023-11-19T20:00:18;10.40;99.90
21001;DHT22;10658;50.920;12.238;2023-11-19T20:04:19;10.30;99.90
21001;DHT22;10658;50.920;12.238;2023-11-19T20:08:20;10.30;99.90
21001;DHT22;10658;50.920;12.238;2023-11-19T20:12:21;10.20;99.90
21001;DHT22;10658;50.920;12.238;2023-11-19T20:16:21;10.20;99.90
21001;DHT22;10658;50.920;12.238;2023-11-19T20:20:22;10.20;99.90
21001;DHT22;10658;50.920;12.238;2023-11-19T20:24:23;10.20;99.90
21001;DHT22;10658;50.920;12.238;2023-11-19T20:28:24;10.20;99.90
21001;DHT22;10658;50.920;12.238;2023-11-19T20:32:25;10.20;99.90
21001;DHT22;10658;50.920;12.238;2023-11-19T20:36:26;10.30;99.90
21001;DHT22;10658;50.920;12.238;2023-11-19T20:40:28;10.30;99.90
21001;DHT22;10658;50.920;12.238;2023-11-19T20:44:28;10.30;99.90
21001;DHT22;10658;50.920;12.238;2023-11-19T20:48:30;10.30;99.90
21001;DHT22;10658;50.920;12.238;2023-11-19T20:52:31;10.40;99.90
21001;DHT22;10658;50.920;12.238;2023-11-19T20:56:32;10.50;99.90
21001;DHT22;10658;50.920;12.238;2023-11-19T21:00:33;10.50;99.90
21001;DHT22;10658;50.920;12.238;2023-11-19T21:04:33;10.50;99.90
21001;DHT22;10658;50.920;12.238;2023-11-19T21:08:34;10.60;99.90
21001;DHT22;10658;50.920;12.238;2023-11-19T21:12:35;10.60;99.90
21001;DHT22;10658;50.920;12.238;2023-11-19T21:16:36;10.60;99.90
21001;DHT22;10658;50.920;12.238;2023-11-19T21:20:36;10.60;99.90
21001;DHT22;10658;50.920;12.238;2023-11-19T21:24:37;10.70;99.90
21001;DHT22;10658;50.920;12.238;2023-11-19T21:28:38;10.60;99.90
21001;DHT22;10658;50.920;12.238;2023-11-19T21:32:39;10.60;99.90
21001;DHT22;10658;50.920;12.238;2023-11-19T21:36:40;10.60;99.90
21001;DHT22;10658;50.920;12.238;2023-11-19T21:40:41;10.60;99.90
21001;DHT22;10658;50.920;12.238;2023-11-19T21:44:41;10.60;99.90
21001;DHT22;10658;50.920;12.238;2023-11-19T21:48:42;10.60;99.90
21001;DHT22;10658;50.920;12.238;2023-11-19T21:52:43;10.50;99.90
21001;DHT22;10658;50.920;12.238;2023-11-19T21:56:44;10.50;99.90
21001;DHT22;10658;50.920;12.238;2023-11-19T22:00:44;10.50;99.90
21001;DHT22;10658;50.920;12.238;2023-11-19T22:04:45;10.50;99.90
21001;DHT22;10658;50.920;12.238;2023-11-19T22:08:46;10.50;99.90
21001;DHT22;10658;50.920;12.238;2023-11-19T22:12:47;10.50;99.90
21001;DHT22;10658;50.920;12.238;2023-11-19T22:16:48;10.50;99.90
21001;DHT22;10658;50.920;12.238;2023-11-19T22:20:49;10.40;99.90
21001;DHT22;10658;50.920;12.238;2023-11-19T22:24:50;10.50;99.90
21001;DHT22;10658;50.920;12.238;2023-11-19T22:28:51;10.40;99.90
21001;DHT22;10658;50.920;12.238;2023-11-19T22:32:51;10.30;99.90
21001;DHT22;10658;50.920;12.238;2023-11-19T22:36:52;10.20;99.90
21001;DHT22;10658;50.920;12.238;2023-11-19T22:40:53;10.10;99.90
21001;DHT22;10658;50.920;12.238;2023-11-19T22:44:54;10.00;99.90
21001;DHT22;10658;50.920;12.238;2023-11-19T22:48:54;9.90;99.90
21001;DHT22;10658;50.920;12.238;2023-11-19T22:52:55;9.80;99.90
21001;DHT22;10658;50.920;12.238;2023-11-19T22:56:57;9.80;99.90
21001;DHT22;10658;50.920;12.238;2023-11-19T23:00:58;9.80;99.90
21001;DHT22;10658;50.920;12.238;2023-11-19T23:04:59;9.70;99.90
21001;DHT22;10658;50.920;12.238;2023-11-19T23:09:00;9.60;99.90
21001;DHT22;10658;50.920;12.238;2023-11-19T23:13:02;9.60;99.90
21001;DHT22;10658;50.920;12.238;2023-11-19T23:17:04;9.50;99.90
21001;DHT22;10658;50.920;12.238;2023-11-19T23:21:05;9.50;99.90
21001;DHT22;10658;50.920;12.238;2023-11-19T23:25:06;9.50;99.90
21001;DHT22;10658;50.920;12.238;2023-11-19T23:29:07;9.50;99.90
21001;DHT22;10658;50.920;12.238;2023-11-19T23:33:09;9.40;99.90
21001;DHT22;10658;50.920;12.238;2023-11-19T23:37:10;9.40;99.90
21001;DHT22;10658;50.920;12.238;2023-11-19T23:41:11;9.40;99.90
21001;DHT22;10658;50.920;12.238;2023-11-19T23:45:13;9.40;99.90
21001;DHT22;10658;50.920;12.238;2023-11-19T23:49:13;9.40;99.90
21001;DHT22;10658;50.920;12.238;2023-11-19T23:53:14;9.40;99.90
21001;DHT22;10658;50.920;12.238;2023-11-19T23:57:15;9.40;99.90
